sensor_id;sensor_type;location;lat;lon;timestamp;P1;durP1;ratioP1;P2;durP2;ratioP2
19002;SDS011;9634;51.040;13.794;2022-10-16T02:01:44;19.60;;;12.57;;
19002;SDS011;9634;51.040;13.794;2022-10-16T02:06:50;18.47;;;13.87;;
19002;SDS011;9634;51.040;13.794;2022-10-16T02:11:55;19.47;;;14.50;;
19002;SDS011;9634;51.040;13.794;2022-10-16T02:17:09;20.53;;;14.13;;
19002;SDS011;9634;51.040;13.794;2022-10-16T02:22:15;21.93;;;14.60;;
19002;SDS011;9634;51.040;13.794;2022-10-16T02:27:22;21.90;;;16.00;;
19002;SDS011;9634;51.040;13.794;2022-10-16T02:32:30;21.20;;;14.17;;
19002;SDS011;9634;51.040;13.794;2022-10-16T05:39:17;14.73;;;10.90;;
19002;SDS011;9634;51.040;13.794;2022-10-16T05:44:20;16.87;;;12.30;;
19002;SDS011;9634;51.040;13.794;2022-10-16T05:49:22;17.83;;;13.03;;
19002;SDS011;9634;51.040;13.794;2022-10-16T05:54:26;17.63;;;13.20;;
19002;SDS011;9634;51.040;13.794;2022-10-16T05:59:28;15.50;;;12.17;;
19002;SDS011;9634;51.040;13.794;2022-10-16T06:04:30;16.80;;;12.67;;
19002;SDS011;9634;51.040;13.794;2022-10-16T06:09:34;16.13;;;12.07;;
19002;SDS011;9634;51.040;13.794;2022-10-16T06:14:36;16.87;;;12.87;;
19002;SDS011;9634;51.040;13.794;2022-10-16T06:19:38;15.57;;;13.87;;
19002;SDS011;9634;51.040;13.794;2022-10-16T06:24:42;18.07;;;14.27;;
19002;SDS011;9634;51.040;13.794;2022-10-16T06:29:44;16.47;;;13.43;;
19002;SDS011;9634;51.040;13.794;2022-10-16T06:34:46;18.50;;;14.77;;
19002;SDS011;9634;51.040;13.794;2022-10-16T06:39:50;17.87;;;14.83;;
19002;SDS011;9634;51.040;13.794;2022-10-16T06:44:53;21.60;;;16.47;;
19002;SDS011;9634;51.040;13.794;2022-10-16T06:49:58;19.40;;;14.80;;
19002;SDS011;9634;51.040;13.794;2022-10-16T06:55:02;21.80;;;14.70;;
19002;SDS011;9634;51.040;13.794;2022-10-16T07:00:06;15.57;;;13.53;;
19002;SDS011;9634;51.040;13.794;2022-10-16T07:05:09;16.30;;;13.30;;
19002;SDS011;9634;51.040;13.794;2022-10-16T07:10:12;16.70;;;13.23;;
19002;SDS011;9634;51.040;13.794;2022-10-16T07:15:14;14.93;;;12.27;;
19002;SDS011;9634;51.040;13.794;2022-10-16T07:20:17;14.60;;;12.17;;
19002;SDS011;9634;51.040;13.794;2022-10-16T07:25:21;14.43;;;12.70;;
19002;SDS011;9634;51.040;13.794;2022-10-16T07:30:23;14.73;;;12.07;;
19002;SDS011;9634;51.040;13.794;2022-10-16T07:35:25;14.77;;;11.80;;
19002;SDS011;9634;51.040;13.794;2022-10-16T07:40:29;13.00;;;11.70;;
19002;SDS011;9634;51.040;13.794;2022-10-16T07:45:31;13.10;;;11.27;;
19002;SDS011;9634;51.040;13.794;2022-10-16T07:50:33;15.27;;;11.07;;
19002;SDS011;9634;51.040;13.794;2022-10-16T07:55:37;15.07;;;11.17;;
19002;SDS011;9634;51.040;13.794;2022-10-16T08:00:39;12.83;;;11.17;;
19002;SDS011;9634;51.040;13.794;2022-10-16T08:05:41;13.80;;;11.40;;
19002;SDS011;9634;51.040;13.794;2022-10-16T08:10:45;13.87;;;11.97;;
19002;SDS011;9634;51.040;13.794;2022-10-16T08:15:47;13.48;;;11.63;;
19002;SDS011;9634;51.040;13.794;2022-10-16T08:20:54;11.27;;;9.90;;
19002;SDS011;9634;51.040;13.794;2022-10-16T08:26:03;9.00;;;8.10;;
19002;SDS011;9634;51.040;13.794;2022-10-16T08:31:07;8.33;;;7.53;;
19002;SDS011;9634;51.040;13.794;2022-10-16T08:36:10;9.77;;;7.13;;
19002;SDS011;9634;51.040;13.794;2022-10-16T08:47:08;8.13;;;6.47;;
19002;SDS011;9634;51.040;13.794;2022-10-16T08:52:18;7.50;;;6.70;;
19002;SDS011;9634;51.040;13.794;2022-10-16T08:57:21;7.83;;;6.90;;
19002;SDS011;9634;51.040;13.794;2022-10-16T09:02:28;9.07;;;7.57;;
19002;SDS011;9634;51.040;13.794;2022-10-16T09:07:36;7.93;;;7.10;;
19002;SDS011;9634;51.040;13.794;2022-10-16T09:12:46;7.63;;;6.93;;
19002;SDS011;9634;51.040;13.794;2022-10-16T09:17:59;8.33;;;7.53;;
19002;SDS011;9634;51.040;13.794;2022-10-16T09:23:16;8.77;;;6.93;;
19002;SDS011;9634;51.040;13.794;2022-10-16T09:28:19;8.23;;;7.10;;
19002;SDS011;9634;51.040;13.794;2022-10-16T09:33:24;10.27;;;7.97;;
19002;SDS011;9634;51.040;13.794;2022-10-16T09:38:32;8.50;;;6.80;;
19002;SDS011;9634;51.040;13.794;2022-10-16T09:43:36;7.60;;;6.90;;
19002;SDS011;9634;51.040;13.794;2022-10-16T09:48:44;9.20;;;7.67;;
19002;SDS011;9634;51.040;13.794;2022-10-16T09:53:54;7.97;;;7.17;;
19002;SDS011;9634;51.040;13.794;2022-10-16T09:58:58;7.47;;;6.73;;
19002;SDS011;9634;51.040;13.794;2022-10-16T10:04:04;8.10;;;6.83;;
19002;SDS011;9634;51.040;13.794;2022-10-16T10:09:15;8.53;;;7.43;;
19002;SDS011;9634;51.040;13.794;2022-10-16T10:14:30;7.00;;;6.30;;
19002;SDS011;9634;51.040;13.794;2022-10-16T10:19:41;6.37;;;5.80;;
19002;SDS011;9634;51.040;13.794;2022-10-16T10:24:54;4.77;;;4.03;;
19002;SDS011;9634;51.040;13.794;2022-10-16T10:29:58;4.67;;;3.10;;
19002;SDS011;9634;51.040;13.794;2022-10-16T10:35:12;5.23;;;3.60;;
19002;SDS011;9634;51.040;13.794;2022-10-16T10:40:23;5.53;;;4.27;;
19002;SDS011;9634;51.040;13.794;2022-10-16T10:50:45;5.47;;;4.73;;
19002;SDS011;9634;51.040;13.794;2022-10-16T10:55:54;4.32;;;3.80;;
19002;SDS011;9634;51.040;13.794;2022-10-16T11:01:09;2.45;;;1.60;;
19002;SDS011;9634;51.040;13.794;2022-10-16T11:06:16;1.27;;;0.83;;
19002;SDS011;9634;51.040;13.794;2022-10-16T11:11:25;0.70;;;0.70;;
19002;SDS011;9634;51.040;13.794;2022-10-16T11:16:35;1.70;;;0.50;;
19002;SDS011;9634;51.040;13.794;2022-10-16T11:21:43;0.40;;;0.40;;
19002;SDS011;9634;51.040;13.794;2022-10-16T11:26:50;1.03;;;0.33;;
19002;SDS011;9634;51.040;13.794;2022-10-16T11:31:57;1.13;;;0.50;;
19002;SDS011;9634;51.040;13.794;2022-10-16T11:37:05;0.83;;;0.40;;
19002;SDS011;9634;51.040;13.794;2022-10-16T11:42:13;0.40;;;0.40;;
19002;SDS011;9634;51.040;13.794;2022-10-16T11:47:24;1.43;;;0.30;;
19002;SDS011;9634;51.040;13.794;2022-10-16T11:52:35;0.67;;;0.40;;
19002;SDS011;9634;51.040;13.794;2022-10-16T11:57:42;0.40;;;0.30;;
19002;SDS011;9634;51.040;13.794;2022-10-16T12:02:57;1.23;;;0.53;;
19002;SDS011;9634;51.040;13.794;2022-10-16T12:08:08;0.30;;;0.30;;
19002;SDS011;9634;51.040;13.794;2022-10-16T12:13:28;0.57;;;0.30;;
19002;SDS011;9634;51.040;13.794;2022-10-16T12:18:34;0.60;;;0.50;;
19002;SDS011;9634;51.040;13.794;2022-10-16T12:23:38;1.55;;;0.52;;
19002;SDS011;9634;51.040;13.794;2022-10-16T12:28:49;1.25;;;0.40;;
19002;SDS011;9634;51.040;13.794;2022-10-16T12:33:55;0.98;;;0.50;;
19002;SDS011;9634;51.040;13.794;2022-10-16T12:39:01;1.90;;;0.50;;
19002;SDS011;9634;51.040;13.794;2022-10-16T12:44:04;1.10;;;0.43;;
19002;SDS011;9634;51.040;13.794;2022-10-16T12:49:21;1.85;;;0.43;;
19002;SDS011;9634;51.040;13.794;2022-10-16T12:54:34;1.45;;;0.40;;
19002;SDS011;9634;51.040;13.794;2022-10-16T12:59:40;1.02;;;0.52;;
19002;SDS011;9634;51.040;13.794;2022-10-16T13:04:50;0.50;;;0.43;;
19002;SDS011;9634;51.040;13.794;2022-10-16T13:10:19;0.88;;;0.30;;
19002;SDS011;9634;51.040;13.794;2022-10-16T13:15:34;0.30;;;0.30;;
19002;SDS011;9634;51.040;13.794;2022-10-16T13:20:57;2.53;;;0.63;;
19002;SDS011;9634;51.040;13.794;2022-10-16T13:26:12;1.07;;;0.80;;
19002;SDS011;9634;51.040;13.794;2022-10-16T13:31:28;0.40;;;0.40;;
19002;SDS011;9634;51.040;13.794;2022-10-16T13:36:34;0.50;;;0.50;;
19002;SDS011;9634;51.040;13.794;2022-10-16T16:43:28;5.70;;;3.50;;
19002;SDS011;9634;51.040;13.794;2022-10-16T16:48:31;4.77;;;3.50;;
19002;SDS011;9634;51.040;13.794;2022-10-16T16:53:33;4.80;;;3.60;;
19002;SDS011;9634;51.040;13.794;2022-10-16T16:58:37;7.00;;;3.80;;
19002;SDS011;9634;51.040;13.794;2022-10-16T17:03:41;6.27;;;3.70;;
19002;SDS011;9634;51.040;13.794;2022-10-16T17:08:45;7.20;;;4.23;;
19002;SDS011;9634;51.040;13.794;2022-10-16T17:13:50;9.10;;;5.03;;
19002;SDS011;9634;51.040;13.794;2022-10-16T17:18:54;7.00;;;4.97;;
19002;SDS011;9634;51.040;13.794;2022-10-16T17:23:59;8.07;;;5.57;;
19002;SDS011;9634;51.040;13.794;2022-10-16T17:29:03;11.53;;;5.80;;
19002;SDS011;9634;51.040;13.794;2022-10-16T17:34:06;9.57;;;6.47;;
19002;SDS011;9634;51.040;13.794;2022-10-16T17:39:10;11.23;;;6.67;;
19002;SDS011;9634;51.040;13.794;2022-10-16T17:44:15;12.17;;;7.17;;
19002;SDS011;9634;51.040;13.794;2022-10-16T17:49:21;11.30;;;8.43;;
19002;SDS011;9634;51.040;13.794;2022-10-16T17:54:23;12.57;;;8.23;;
19002;SDS011;9634;51.040;13.794;2022-10-16T17:59:27;13.43;;;8.47;;
19002;SDS011;9634;51.040;13.794;2022-10-16T18:04:29;15.13;;;9.93;;
19002;SDS011;9634;51.040;13.794;2022-10-16T18:09:32;17.47;;;9.53;;
19002;SDS011;9634;51.040;13.794;2022-10-16T18:14:35;11.70;;;9.10;;
19002;SDS011;9634;51.040;13.794;2022-10-16T18:19:37;12.90;;;10.43;;
19002;SDS011;9634;51.040;13.794;2022-10-16T18:24:40;16.17;;;12.70;;
19002;SDS011;9634;51.040;13.794;2022-10-16T18:29:43;16.80;;;10.23;;
19002;SDS011;9634;51.040;13.794;2022-10-16T18:34:46;12.40;;;9.83;;
19002;SDS011;9634;51.040;13.794;2022-10-16T18:39:48;12.87;;;8.57;;
19002;SDS011;9634;51.040;13.794;2022-10-16T18:44:52;17.67;;;10.70;;
19002;SDS011;9634;51.040;13.794;2022-10-16T18:49:54;15.40;;;10.37;;
19002;SDS011;9634;51.040;13.794;2022-10-16T18:54:56;12.63;;;10.17;;
19002;SDS011;9634;51.040;13.794;2022-10-16T19:00:00;17.93;;;11.23;;
19002;SDS011;9634;51.040;13.794;2022-10-16T19:05:02;14.30;;;10.90;;
19002;SDS011;9634;51.040;13.794;2022-10-16T19:10:05;17.93;;;11.27;;
19002;SDS011;9634;51.040;13.794;2022-10-16T19:15:09;14.67;;;11.90;;
19002;SDS011;9634;51.040;13.794;2022-10-16T19:20:11;20.33;;;13.43;;
19002;SDS011;9634;51.040;13.794;2022-10-16T19:25:14;19.50;;;11.93;;
19002;SDS011;9634;51.040;13.794;2022-10-16T19:30:17;16.03;;;11.50;;
19002;SDS011;9634;51.040;13.794;2022-10-16T19:35:22;17.53;;;11.77;;
19002;SDS011;9634;51.040;13.794;2022-10-16T19:40:26;17.70;;;11.73;;
19002;SDS011;9634;51.040;13.794;2022-10-16T22:46:44;8.87;;;6.00;;
19002;SDS011;9634;51.040;13.794;2022-10-16T22:51:47;11.87;;;6.23;;
19002;SDS011;9634;51.040;13.794;2022-10-16T22:56:49;8.10;;;5.67;;
19002;SDS011;9634;51.040;13.794;2022-10-16T23:01:52;12.00;;;5.90;;
19002;SDS011;9634;51.040;13.794;2022-10-16T23:06:55;7.73;;;5.33;;
19002;SDS011;9634;51.040;13.794;2022-10-16T23:11:58;8.97;;;5.27;;
19002;SDS011;9634;51.040;13.794;2022-10-16T23:17:02;6.70;;;5.13;;
19002;SDS011;9634;51.040;13.794;2022-10-16T23:22:04;6.20;;;4.67;;
19002;SDS011;9634;51.040;13.794;2022-10-16T23:27:06;13.17;;;5.23;;
19002;SDS011;9634;51.040;13.794;2022-10-16T23:32:10;7.93;;;5.23;;
19002;SDS011;9634;51.040;13.794;2022-10-16T23:37:12;9.37;;;5.03;;
19002;SDS011;9634;51.040;13.794;2022-10-16T23:42:14;8.67;;;5.10;;
19002;SDS011;9634;51.040;13.794;2022-10-16T23:47:18;7.47;;;4.90;;
19002;SDS011;9634;51.040;13.794;2022-10-16T23:52:20;9.23;;;5.50;;
19002;SDS011;9634;51.040;13.794;2022-10-16T23:57:22;8.23;;;5.50;;
